Time;durP1;ratioP1;P1;durP2;ratioP2;P2;SDS_P1;SDS_P2;PMS_P1;PMS_P2;Temp;Humidity;BMP_temperature;BMP_pressure;BME280_temperature;BME280_humidity;BME280_pressure;Samples;Min_cycle;Max_cycle;Signal;HPM_P1;HPM_P2
2023/03/19 00:00:55;;;;;;;;;;;17.20;54.30;;;;;;5009939;28;19910;-73
2023/03/19 00:03:20;;;;;;;;;;;17.20;54.40;;;;;;5012178;27;20665;-73
2023/03/19 00:05:50;;;;;;;;;;;17.20;54.40;;;;;;5008108;28;19917;-73
2023/03/19 00:08:15;;;;;;;;;;;17.20;54.40;;;;;;5020122;28;19949;-73
2023/03/19 00:10:41;;;;;;;;;;;17.20;54.40;;;;;;5012490;28;19957;-73
2023/03/19 00:13:08;;;;;;;;;;;17.20;54.40;;;;;;4992697;28;19918;-73
2023/03/19 00:15:34;;;;;;;;;;;17.20;54.50;;;;;;5008399;28;19928;-73
2023/03/19 00:17:59;;;;;;;;;;;17.20;54.50;;;;;;5012467;28;19914;-73
2023/03/19 00:20:26;;;;;;;;;;;17.10;54.50;;;;;;5021114;28;20434;-73
2023/03/19 00:22:51;;;;;;;;;;;17.10;54.50;;;;;;5015992;28;19917;-73
2023/03/19 00:25:16;;;;;;;;;;;17.10;54.50;;;;;;5008477;28;19913;-74
2023/03/19 00:27:43;;;;;;;;;;;17.10;54.50;;;;;;5009609;28;19917;-74
2023/03/19 00:30:10;;;;;;;;;;;17.10;54.60;;;;;;5000152;28;19924;-74
2023/03/19 00:32:35;;;;;;;;;;;17.10;54.50;;;;;;5024668;28;19966;-74
2023/03/19 00:35:01;;;;;;;;;;;17.10;54.60;;;;;;4995825;28;19921;-73
2023/03/19 00:37:26;;;;;;;;;;;17.10;55.20;;;;;;5009914;28;19922;-73
2023/03/19 00:39:52;;;;;;;;;;;17.10;54.70;;;;;;5015410;28;19924;-73
2023/03/19 00:42:17;;;;;;;;;;;17.10;54.70;;;;;;5027850;28;19913;-73
2023/03/19 00:44:43;;;;;;;;;;;17.00;54.60;;;;;;5007115;28;20286;-73
2023/03/19 00:47:08;;;;;;;;;;;17.00;54.70;;;;;;5096183;28;19942;-74
2023/03/19 00:49:34;;;;;;;;;;;17.00;54.70;;;;;;5011079;28;19979;-74
2023/03/19 00:51:59;;;;;;;;;;;17.00;54.80;;;;;;5011538;28;20263;-75
2023/03/19 00:54:24;;;;;;;;;;;17.00;54.80;;;;;;5026990;28;19924;-75
2023/03/19 00:56:50;;;;;;;;;;;17.00;54.80;;;;;;5006500;28;19909;-74
2023/03/19 00:59:15;;;;;;;;;;;17.00;54.80;;;;;;5009801;28;19910;-74
2023/03/19 01:01:41;;;;;;;;;;;17.00;54.80;;;;;;5011472;28;19921;-74
2023/03/19 01:04:06;;;;;;;;;;;17.00;54.80;;;;;;5027836;28;20385;-74
2023/03/19 01:06:32;;;;;;;;;;;17.00;54.80;;;;;;5008217;28;19913;-74
2023/03/19 01:08:57;;;;;;;;;;;17.00;54.90;;;;;;5007897;28;20008;-74
2023/03/19 01:11:23;;;;;;;;;;;17.00;54.80;;;;;;5007448;28;19932;-75
2023/03/19 01:13:48;;;;;;;;;;;17.00;54.90;;;;;;5022521;28;20418;-74
2023/03/19 01:16:13;;;;;;;;;;;16.90;54.90;;;;;;5014644;28;20020;-75
2023/03/19 01:18:39;;;;;;;;;;;16.90;54.90;;;;;;5023044;28;20412;-75
2023/03/19 01:21:05;;;;;;;;;;;16.90;54.90;;;;;;5014603;28;20000;-75
2023/03/19 01:23:30;;;;;;;;;;;16.90;54.90;;;;;;5008192;28;19921;-74
2023/03/19 01:25:56;;;;;;;;;;;16.90;54.90;;;;;;5003265;28;19920;-74
2023/03/19 01:28:21;;;;;;;;;;;16.90;54.90;;;;;;5016547;28;19958;-75
2023/03/19 01:30:47;;;;;;;;;;;16.90;54.90;;;;;;5022791;28;19921;-74
2023/03/19 01:33:13;;;;;;;;;;;16.90;54.90;;;;;;5007838;28;19920;-74
2023/03/19 01:35:38;;;;;;;;;;;16.90;54.90;;;;;;5065897;28;20405;-74
2023/03/19 01:38:04;;;;;;;;;;;16.90;54.90;;;;;;5002464;28;19921;-74
2023/03/19 01:40:30;;;;;;;;;;;16.90;54.90;;;;;;5020148;28;19921;-74
2023/03/19 01:43:06;;;;;;;;;;;16.90;54.90;;;;;;5007540;28;19913;-74
2023/03/19 01:45:35;;;;;;;;;;;16.90;54.90;;;;;;4998839;28;19917;-74
2023/03/19 01:48:01;;;;;;;;;;;16.90;54.90;;;;;;5019361;28;20284;-74
2023/03/19 01:50:49;;;;;;;;;;;16.90;55.00;;;;;;5007638;28;19914;-74
2023/03/19 01:53:15;;;;;;;;;;;16.80;54.80;;;;;;5015435;28;19920;-74
2023/03/19 01:55:40;;;;;;;;;;;16.90;55.00;;;;;;5008394;28;19921;-75
2023/03/19 01:58:06;;;;;;;;;;;16.90;55.00;;;;;;5036738;28;19936;-74
2023/03/19 02:00:33;;;;;;;;;;;16.80;54.90;;;;;;5058601;27;19998;-74
2023/03/19 02:02:59;;;;;;;;;;;16.80;54.90;;;;;;5024346;27;19913;-74
2023/03/19 02:05:24;;;;;;;;;;;16.80;55.00;;;;;;5022287;27;19914;-74
2023/03/19 02:07:51;;;;;;;;;;;16.80;55.00;;;;;;4998832;28;20393;-74
2023/03/19 02:10:16;;;;;;;;;;;16.80;55.00;;;;;;5075488;28;19922;-74
2023/03/19 02:12:43;;;;;;;;;;;16.80;54.90;;;;;;5010867;28;19982;-74
2023/03/19 02:15:09;;;;;;;;;;;16.80;54.90;;;;;;5010167;28;19921;-74
2023/03/19 02:17:34;;;;;;;;;;;16.80;54.80;;;;;;5015674;28;19917;-74
2023/03/19 02:20:07;;;;;;;;;;;16.90;54.70;;;;;;5025919;28;19913;-74
2023/03/19 02:22:32;;;;;;;;;;;16.90;54.60;;;;;;5010760;28;19949;-74
2023/03/19 02:25:02;;;;;;;;;;;17.00;54.50;;;;;;5010964;28;20398;-74
2023/03/19 02:27:27;;;;;;;;;;;17.10;54.30;;;;;;4993739;28;19922;-74
2023/03/19 02:29:53;;;;;;;;;;;17.20;54.10;;;;;;5010153;28;19925;-74
2023/03/19 02:32:18;;;;;;;;;;;17.30;53.70;;;;;;5017918;28;19951;-74
2023/03/19 02:34:44;;;;;;;;;;;17.50;53.50;;;;;;5009890;28;19917;-74
2023/03/19 02:37:20;;;;;;;;;;;17.60;53.10;;;;;;5011403;28;19971;-74
2023/03/19 02:39:49;;;;;;;;;;;17.80;52.90;;;;;;5010973;28;19913;-74
2023/03/19 02:42:15;;;;;;;;;;;17.90;52.50;;;;;;5012656;28;20003;-74
2023/03/19 02:44:40;;;;;;;;;;;18.10;52.20;;;;;;5012270;28;20017;-74
2023/03/19 02:47:06;;;;;;;;;;;18.10;52.10;;;;;;5010916;28;20294;-75
2023/03/19 02:49:31;;;;;;;;;;;18.10;51.90;;;;;;5010246;28;19959;-74
2023/03/19 02:51:57;;;;;;;;;;;18.20;52.00;;;;;;5009185;28;19919;-74
2023/03/19 02:54:22;;;;;;;;;;;18.20;51.90;;;;;;5030447;28;19909;-74
2023/03/19 02:56:48;;;;;;;;;;;18.10;52.00;;;;;;5012761;28;19917;-75
2023/03/19 02:59:13;;;;;;;;;;;18.10;52.10;;;;;;5027415;28;19992;-74
2023/03/19 03:01:39;;;;;;;;;;;18.00;52.30;;;;;;5011699;28;19953;-74
2023/03/19 03:04:04;;;;;;;;;;;17.90;52.50;;;;;;5011870;28;19917;-74
2023/03/19 03:06:30;;;;;;;;;;;17.90;52.70;;;;;;5009330;28;19955;-75
2023/03/19 03:08:55;;;;;;;;;;;17.80;52.90;;;;;;5012267;28;20363;-74
2023/03/19 03:11:21;;;;;;;;;;;17.70;53.00;;;;;;5018967;27;20287;-74
2023/03/19 03:13:47;;;;;;;;;;;17.70;53.00;;;;;;5009697;28;20371;-74
2023/03/19 03:16:12;;;;;;;;;;;17.60;53.00;;;;;;5009402;28;19917;-74
2023/03/19 03:18:38;;;;;;;;;;;17.60;53.70;;;;;;5009520;28;19913;-73
2023/03/19 03:21:03;;;;;;;;;;;17.60;53.20;;;;;;5009284;28;20050;-74
2023/03/19 03:23:29;;;;;;;;;;;17.50;53.10;;;;;;5009230;28;20279;-74
2023/03/19 03:25:54;;;;;;;;;;;17.50;53.90;;;;;;5015882;28;19928;-74
2023/03/19 03:28:19;;;;;;;;;;;17.50;53.50;;;;;;5010552;28;19924;-74
2023/03/19 03:30:45;;;;;;;;;;;17.40;53.40;;;;;;5008549;28;20016;-75
2023/03/19 03:33:11;;;;;;;;;;;17.40;53.50;;;;;;5023441;28;19918;-75
2023/03/19 03:35:36;;;;;;;;;;;17.40;53.60;;;;;;4993047;28;22001;-75
2023/03/19 03:38:03;;;;;;;;;;;17.40;53.70;;;;;;4995670;28;19937;-75
2023/03/19 03:40:28;;;;;;;;;;;17.30;53.60;;;;;;5011403;28;19909;-75
2023/03/19 03:42:54;;;;;;;;;;;17.30;53.70;;;;;;5009508;28;20205;-74
2023/03/19 03:45:19;;;;;;;;;;;17.30;53.80;;;;;;5010008;28;20016;-75
2023/03/19 03:47:45;;;;;;;;;;;17.20;53.80;;;;;;5009400;28;19917;-75
2023/03/19 03:50:11;;;;;;;;;;;17.20;53.80;;;;;;5009194;28;19965;-74
2023/03/19 03:52:37;;;;;;;;;;;17.20;53.90;;;;;;5009210;28;19914;-75
2023/03/19 03:55:02;;;;;;;;;;;17.20;53.90;;;;;;5006348;28;19924;-75
2023/03/19 03:57:28;;;;;;;;;;;17.20;53.90;;;;;;5025180;28;20275;-74
2023/03/19 03:59:53;;;;;;;;;;;17.20;53.90;;;;;;5012547;28;19974;-74
2023/03/19 04:02:19;;;;;;;;;;;17.20;54.00;;;;;;5031539;27;19922;-74
2023/03/19 04:04:44;;;;;;;;;;;17.20;54.00;;;;;;5014134;28;19924;-74
2023/03/19 04:07:10;;;;;;;;;;;17.20;54.10;;;;;;5010222;28;19913;-74
2023/03/19 04:09:36;;;;;;;;;;;17.20;54.10;;;;;;5003893;28;20386;-74
2023/03/19 04:12:01;;;;;;;;;;;17.20;54.10;;;;;;5016482;28;19940;-74
2023/03/19 04:14:26;;;;;;;;;;;17.20;54.00;;;;;;5039288;27;19913;-74
2023/03/19 04:16:52;;;;;;;;;;;17.20;54.00;;;;;;5027196;28;19917;-74
2023/03/19 04:19:18;;;;;;;;;;;17.20;53.90;;;;;;5022009;28;20023;-74
2023/03/19 04:21:43;;;;;;;;;;;17.20;53.90;;;;;;5007789;28;19987;-74
2023/03/19 04:24:09;;;;;;;;;;;17.30;54.00;;;;;;5009189;28;19914;-74
2023/03/19 04:26:35;;;;;;;;;;;17.20;53.90;;;;;;5019751;28;19917;-74
2023/03/19 04:29:01;;;;;;;;;;;17.30;53.80;;;;;;5012357;28;20403;-74
2023/03/19 04:31:26;;;;;;;;;;;17.30;53.90;;;;;;5006478;28;19955;-74
2023/03/19 04:33:52;;;;;;;;;;;17.30;54.40;;;;;;5015531;28;19914;-74
2023/03/19 04:36:17;;;;;;;;;;;17.30;53.90;;;;;;5000885;28;19918;-74
2023/03/19 04:38:43;;;;;;;;;;;17.30;53.80;;;;;;5009740;28;19936;-74
2023/03/19 04:41:09;;;;;;;;;;;17.30;53.80;;;;;;4998762;28;19913;-74
2023/03/19 04:43:35;;;;;;;;;;;17.30;53.70;;;;;;5014555;28;19954;-75
2023/03/19 04:46:01;;;;;;;;;;;17.30;53.60;;;;;;5008371;28;19914;-74
2023/03/19 04:48:27;;;;;;;;;;;17.30;53.60;;;;;;5016356;28;19925;-74
2023/03/19 04:50:55;;;;;;;;;;;17.30;53.70;;;;;;5008206;28;20298;-73
2023/03/19 04:53:21;;;;;;;;;;;17.40;53.80;;;;;;5021347;28;20005;-74
2023/03/19 04:55:46;;;;;;;;;;;17.30;53.70;;;;;;4997978;28;20015;-74
2023/03/19 04:58:12;;;;;;;;;;;17.30;53.80;;;;;;5022233;28;19918;-74
2023/03/19 05:00:37;;;;;;;;;;;17.30;53.80;;;;;;4991388;28;19953;-74
2023/03/19 05:03:03;;;;;;;;;;;17.30;53.70;;;;;;5019871;28;19914;-74
2023/03/19 05:05:28;;;;;;;;;;;17.30;53.80;;;;;;5008075;28;19914;-74
2023/03/19 05:07:54;;;;;;;;;;;17.30;53.70;;;;;;5008202;28;19921;-74
2023/03/19 05:10:19;;;;;;;;;;;17.30;53.80;;;;;;5009174;28;19978;-74
2023/03/19 05:12:45;;;;;;;;;;;17.20;53.80;;;;;;5026359;28;20336;-74
2023/03/19 05:15:10;;;;;;;;;;;17.20;53.80;;;;;;5007549;28;19917;-75
2023/03/19 05:17:36;;;;;;;;;;;17.20;53.80;;;;;;5008450;28;19913;-74
2023/03/19 05:20:03;;;;;;;;;;;17.20;53.80;;;;;;5007655;28;19934;-74
2023/03/19 05:22:29;;;;;;;;;;;17.20;53.80;;;;;;4992534;28;20388;-74
2023/03/19 05:24:55;;;;;;;;;;;17.20;53.80;;;;;;5009695;28;19940;-74
2023/03/19 05:27:20;;;;;;;;;;;17.20;53.80;;;;;;5007680;28;19917;-74
2023/03/19 05:29:47;;;;;;;;;;;17.20;53.90;;;;;;5007609;28;19920;-74
2023/03/19 05:32:12;;;;;;;;;;;17.20;53.80;;;;;;5020184;28;20155;-74
2023/03/19 05:34:38;;;;;;;;;;;17.20;53.90;;;;;;5015329;28;19921;-74
2023/03/19 05:37:03;;;;;;;;;;;17.20;53.90;;;;;;5011175;28;19962;-74
2023/03/19 05:39:29;;;;;;;;;;;17.20;53.90;;;;;;5008046;28;19909;-74
2023/03/19 05:41:54;;;;;;;;;;;17.20;53.90;;;;;;5017131;28;19956;-74
2023/03/19 05:44:20;;;;;;;;;;;17.20;53.90;;;;;;5022490;28;19993;-74
2023/03/19 05:46:45;;;;;;;;;;;17.20;53.90;;;;;;5010732;28;19962;-74
2023/03/19 05:49:11;;;;;;;;;;;17.20;53.90;;;;;;5010936;28;19921;-74
2023/03/19 05:51:36;;;;;;;;;;;17.20;53.90;;;;;;5011231;28;19920;-74
2023/03/19 05:54:02;;;;;;;;;;;17.20;54.50;;;;;;5000407;28;19909;-74
2023/03/19 05:56:27;;;;;;;;;;;17.20;53.90;;;;;;5095015;28;19917;-74
2023/03/19 05:58:53;;;;;;;;;;;17.20;53.90;;;;;;5025240;28;19914;-74
2023/03/19 06:01:18;;;;;;;;;;;17.20;54.00;;;;;;5020341;28;19913;-74
2023/03/19 06:03:44;;;;;;;;;;;17.20;54.00;;;;;;5014802;28;19956;-74
2023/03/19 06:06:09;;;;;;;;;;;17.20;53.90;;;;;;5014186;28;19925;-74
2023/03/19 06:08:35;;;;;;;;;;;17.20;53.90;;;;;;4999142;28;20270;-74
2023/03/19 06:11:00;;;;;;;;;;;17.20;53.90;;;;;;5016246;28;19921;-75
2023/03/19 06:13:26;;;;;;;;;;;17.20;53.90;;;;;;5013410;28;19913;-74
2023/03/19 06:15:51;;;;;;;;;;;17.20;53.90;;;;;;5024448;28;19928;-74
2023/03/19 06:18:16;;;;;;;;;;;17.20;53.90;;;;;;4998497;28;19958;-74
2023/03/19 06:20:42;;;;;;;;;;;17.20;53.90;;;;;;5010495;28;19913;-74
2023/03/19 06:23:08;;;;;;;;;;;17.20;53.90;;;;;;5010881;28;20013;-74
2023/03/19 06:25:33;;;;;;;;;;;17.10;53.90;;;;;;4993668;28;19914;-74
2023/03/19 06:27:59;;;;;;;;;;;17.20;53.90;;;;;;5010342;28;19967;-74
2023/03/19 06:30:24;;;;;;;;;;;17.20;54.00;;;;;;5034821;28;19922;-74
2023/03/19 06:32:50;;;;;;;;;;;17.20;53.90;;;;;;5022397;27;20000;-74
2023/03/19 06:35:16;;;;;;;;;;;17.20;53.90;;;;;;5010337;28;19917;-74
2023/03/19 06:37:42;;;;;;;;;;;17.20;53.90;;;;;;5012061;28;20000;-75
2023/03/19 06:40:08;;;;;;;;;;;17.20;53.80;;;;;;4994792;28;19920;-75
2023/03/19 06:42:33;;;;;;;;;;;17.20;53.90;;;;;;5011482;28;19928;-74
2023/03/19 06:45:00;;;;;;;;;;;17.20;53.80;;;;;;5027425;28;20433;-74
2023/03/19 06:47:25;;;;;;;;;;;17.20;53.90;;;;;;5010171;28;20363;-74
2023/03/19 06:49:51;;;;;;;;;;;17.20;53.90;;;;;;5010197;28;19917;-74
2023/03/19 06:52:16;;;;;;;;;;;17.20;53.90;;;;;;5012212;28;19913;-74
2023/03/19 06:54:42;;;;;;;;;;;17.20;53.90;;;;;;5030981;28;19913;-74
2023/03/19 06:57:07;;;;;;;;;;;17.20;54.00;;;;;;5010945;28;19914;-74
2023/03/19 06:59:33;;;;;;;;;;;17.20;53.90;;;;;;5009659;28;20382;-74
2023/03/19 07:01:58;;;;;;;;;;;17.20;53.80;;;;;;5009239;28;19920;-74
2023/03/19 07:04:24;;;;;;;;;;;17.20;53.90;;;;;;5012472;28;19918;-75
2023/03/19 07:06:49;;;;;;;;;;;17.20;53.90;;;;;;5015725;28;20298;-74
2023/03/19 07:09:15;;;;;;;;;;;17.20;54.00;;;;;;4999557;28;19956;-74
2023/03/19 07:11:40;;;;;;;;;;;17.20;54.10;;;;;;4998425;28;19922;-74
2023/03/19 07:14:06;;;;;;;;;;;17.20;54.70;;;;;;5009570;28;19913;-74
2023/03/19 07:16:31;;;;;;;;;;;17.20;54.00;;;;;;4992660;28;19922;-74
2023/03/19 07:18:57;;;;;;;;;;;17.20;54.10;;;;;;5014589;28;19913;-74
2023/03/19 07:21:22;;;;;;;;;;;17.20;54.10;;;;;;5009776;28;19953;-74
2023/03/19 07:23:49;;;;;;;;;;;17.20;54.20;;;;;;5014012;28;19913;-74
2023/03/19 07:26:15;;;;;;;;;;;17.20;54.20;;;;;;5011621;28;20378;-74
2023/03/19 07:28:40;;;;;;;;;;;17.20;54.20;;;;;;5025348;28;19920;-74
2023/03/19 07:31:06;;;;;;;;;;;17.20;54.10;;;;;;4992953;28;20034;-74
2023/03/19 07:33:31;;;;;;;;;;;17.20;54.00;;;;;;5028834;27;19921;-74
2023/03/19 07:35:57;;;;;;;;;;;17.20;54.10;;;;;;5027750;28;19913;-74
2023/03/19 07:38:22;;;;;;;;;;;17.20;54.10;;;;;;4993005;28;19916;-74
2023/03/19 07:40:48;;;;;;;;;;;17.20;54.20;;;;;;5009119;28;19925;-74
2023/03/19 07:43:14;;;;;;;;;;;17.20;54.20;;;;;;5028007;28;19913;-74
2023/03/19 07:45:39;;;;;;;;;;;17.20;54.20;;;;;;5026871;28;20011;-75
2023/03/19 07:48:05;;;;;;;;;;;17.20;54.20;;;;;;5028610;28;19913;-75
2023/03/19 07:50:31;;;;;;;;;;;17.20;54.20;;;;;;5020122;28;19921;-74
2023/03/19 07:52:56;;;;;;;;;;;17.20;54.20;;;;;;5008002;28;19996;-74
2023/03/19 07:55:22;;;;;;;;;;;17.20;54.20;;;;;;5008983;28;19925;-74
2023/03/19 07:57:47;;;;;;;;;;;17.20;54.20;;;;;;5009746;28;20246;-75
2023/03/19 08:00:13;;;;;;;;;;;17.20;54.10;;;;;;5007728;28;19909;-75
2023/03/19 08:02:39;;;;;;;;;;;17.20;54.10;;;;;;4992638;28;19909;-75
2023/03/19 08:05:04;;;;;;;;;;;17.20;54.10;;;;;;5007268;28;20175;-75
2023/03/19 08:07:30;;;;;;;;;;;17.30;54.20;;;;;;5095254;28;20377;-75
2023/03/19 08:09:57;;;;;;;;;;;17.30;54.10;;;;;;5094837;28;20283;-75
2023/03/19 08:12:22;;;;;;;;;;;17.30;54.10;;;;;;5094436;28;20082;-75
2023/03/19 08:14:48;;;;;;;;;;;17.30;54.10;;;;;;5094450;28;19999;-75
2023/03/19 08:17:13;;;;;;;;;;;17.30;54.10;;;;;;5017479;28;19920;-75
2023/03/19 08:19:39;;;;;;;;;;;17.30;54.00;;;;;;5014373;28;19918;-75
2023/03/19 08:22:04;;;;;;;;;;;17.30;54.10;;;;;;5009205;28;20359;-75
2023/03/19 08:24:30;;;;;;;;;;;17.40;54.10;;;;;;5009104;28;20274;-75
2023/03/19 08:26:55;;;;;;;;;;;17.30;54.00;;;;;;4992677;28;19910;-75
2023/03/19 08:29:21;;;;;;;;;;;17.30;54.10;;;;;;5008797;28;20557;-75
2023/03/19 08:31:46;;;;;;;;;;;17.30;54.10;;;;;;5041101;27;20270;-75
2023/03/19 08:34:12;;;;;;;;;;;17.30;54.00;;;;;;4999604;28;19931;-75
2023/03/19 08:36:37;;;;;;;;;;;17.30;54.50;;;;;;5008842;28;20007;-75
2023/03/19 08:39:03;;;;;;;;;;;17.40;54.30;;;;;;5028773;28;19909;-75
2023/03/19 08:41:28;;;;;;;;;;;17.30;54.20;;;;;;5028468;28;19969;-75
2023/03/19 08:43:54;;;;;;;;;;;17.30;54.20;;;;;;5009431;28;20012;-75
2023/03/19 08:46:19;;;;;;;;;;;17.30;54.30;;;;;;5008156;28;20008;-75
2023/03/19 08:48:45;;;;;;;;;;;17.30;54.30;;;;;;5007975;28;20025;-74
2023/03/19 08:51:10;;;;;;;;;;;17.30;54.30;;;;;;5009422;28;19910;-74
2023/03/19 08:53:36;;;;;;;;;;;17.30;54.40;;;;;;5008559;28;20000;-74
2023/03/19 08:56:03;;;;;;;;;;;17.30;54.20;;;;;;4992034;28;19987;-74
2023/03/19 08:58:28;;;;;;;;;;;17.30;54.20;;;;;;5008540;28;20305;-75
2023/03/19 09:01:00;;;;;;;;;;;17.40;54.30;;;;;;5026904;28;19910;-75
2023/03/19 09:03:26;;;;;;;;;;;17.40;54.30;;;;;;5009114;28;19914;-75
2023/03/19 09:05:51;;;;;;;;;;;17.40;54.30;;;;;;5010227;28;19918;-75
2023/03/19 09:08:17;;;;;;;;;;;17.40;54.30;;;;;;5026269;28;19921;-75
2023/03/19 09:10:42;;;;;;;;;;;17.40;54.90;;;;;;5014762;28;19921;-75
2023/03/19 09:13:08;;;;;;;;;;;17.40;54.30;;;;;;5031970;28;19910;-75
2023/03/19 09:15:33;;;;;;;;;;;17.40;54.30;;;;;;5031146;28;19914;-75
2023/03/19 09:17:59;;;;;;;;;;;17.50;54.50;;;;;;5015460;28;20458;-75
2023/03/19 09:20:25;;;;;;;;;;;17.50;54.50;;;;;;5029629;28;19929;-74
2023/03/19 09:22:50;;;;;;;;;;;17.50;54.50;;;;;;5013043;28;19916;-75
2023/03/19 09:25:16;;;;;;;;;;;17.50;54.40;;;;;;5012465;28;19948;-75
2023/03/19 09:27:41;;;;;;;;;;;17.60;54.50;;;;;;5011625;28;19924;-75
2023/03/19 09:30:09;;;;;;;;;;;17.60;54.50;;;;;;5017808;28;20290;-74
2023/03/19 09:32:35;;;;;;;;;;;17.60;54.60;;;;;;5026967;28;20015;-74
2023/03/19 09:35:00;;;;;;;;;;;17.60;54.70;;;;;;5015913;28;20450;-74
2023/03/19 09:37:26;;;;;;;;;;;17.60;54.70;;;;;;5012788;28;20012;-74
2023/03/19 09:39:51;;;;;;;;;;;17.60;54.60;;;;;;5012089;28;20431;-74
2023/03/19 09:42:43;;;;;;;;;;;17.60;54.60;;;;;;5011467;28;20301;-74
2023/03/19 09:45:15;;;;;;;;;;;17.60;54.70;;;;;;5012897;28;19920;-75
2023/03/19 09:47:42;;;;;;;;;;;17.70;54.80;;;;;;5011519;28;19909;-75
2023/03/19 09:50:21;;;;;;;;;;;17.70;54.80;;;;;;4995282;28;19909;-75
2023/03/19 09:52:52;;;;;;;;;;;17.70;54.80;;;;;;4995299;28;20243;-75
2023/03/19 09:55:24;;;;;;;;;;;17.70;54.90;;;;;;5011273;28;19914;-75
2023/03/19 09:57:52;;;;;;;;;;;17.70;54.80;;;;;;5029255;28;19960;-75
2023/03/19 10:00:27;;;;;;;;;;;17.70;54.80;;;;;;5029930;28;19928;-75
2023/03/19 10:02:55;;;;;;;;;;;17.70;54.80;;;;;;5013242;28;20293;-75
2023/03/19 10:05:22;;;;;;;;;;;17.70;54.80;;;;;;5020851;28;19920;-75
2023/03/19 10:08:02;;;;;;;;;;;17.70;54.80;;;;;;5011486;28;19942;-75
2023/03/19 10:10:35;;;;;;;;;;;17.70;54.90;;;;;;5013916;28;20306;-75
2023/03/19 10:13:00;;;;;;;;;;;17.70;55.00;;;;;;5011257;28;19910;-75
2023/03/19 10:15:27;;;;;;;;;;;17.70;55.00;;;;;;5011886;28;19921;-76
2023/03/19 10:18:00;;;;;;;;;;;17.70;55.00;;;;;;5020967;28;19918;-75
2023/03/19 10:20:30;;;;;;;;;;;17.70;55.10;;;;;;5014182;28;19944;-75
2023/03/19 10:23:13;;;;;;;;;;;17.70;55.20;;;;;;5029089;28;19914;-75
2023/03/19 10:25:38;;;;;;;;;;;17.70;55.20;;;;;;5010479;28;20681;-75
2023/03/19 10:28:12;;;;;;;;;;;17.70;55.20;;;;;;5011028;28;20005;-75
2023/03/19 10:30:37;;;;;;;;;;;17.80;55.30;;;;;;5028616;28;19917;-76
2023/03/19 10:33:22;;;;;;;;;;;17.80;55.30;;;;;;5021391;27;20374;-75
2023/03/19 10:35:48;;;;;;;;;;;17.80;55.20;;;;;;5010974;28;19918;-76
2023/03/19 10:38:20;;;;;;;;;;;17.90;55.10;;;;;;5011942;28;19913;-74
2023/03/19 10:41:05;;;;;;;;;;;18.00;55.10;;;;;;5010286;28;19916;-75
2023/03/19 10:43:31;;;;;;;;;;;18.10;55.10;;;;;;5011817;28;19920;-75
2023/03/19 10:45:56;;;;;;;;;;;18.20;54.90;;;;;;5010142;28;19913;-75
2023/03/19 10:48:23;;;;;;;;;;;18.30;54.70;;;;;;4994564;28;20426;-75
2023/03/19 10:50:49;;;;;;;;;;;18.50;55.20;;;;;;5010282;28;19913;-75
2023/03/19 10:53:15;;;;;;;;;;;18.70;54.00;;;;;;5027282;28;20366;-75
2023/03/19 10:55:45;;;;;;;;;;;18.90;53.60;;;;;;5031167;28;19917;-75
2023/03/19 10:58:15;;;;;;;;;;;19.10;53.30;;;;;;5029285;28;19917;-75
2023/03/19 11:00:40;;;;;;;;;;;19.30;53.10;;;;;;5026054;28;20235;-75
2023/03/19 11:03:09;;;;;;;;;;;19.40;52.90;;;;;;5007131;28;20367;-75
2023/03/19 11:05:35;;;;;;;;;;;19.40;52.70;;;;;;5019143;28;19950;-75
2023/03/19 11:08:00;;;;;;;;;;;19.40;52.80;;;;;;5030131;28;19961;-75
2023/03/19 11:10:27;;;;;;;;;;;19.40;52.90;;;;;;5030921;28;19981;-74
2023/03/19 11:12:56;;;;;;;;;;;19.30;52.90;;;;;;5028557;28;19953;-74
2023/03/19 11:15:22;;;;;;;;;;;19.30;53.10;;;;;;5012998;28;19940;-74
2023/03/19 11:17:49;;;;;;;;;;;19.30;53.10;;;;;;5019007;28;20339;-74
2023/03/19 11:20:21;;;;;;;;;;;19.30;53.10;;;;;;4994000;28;19995;-75
2023/03/19 11:22:47;;;;;;;;;;;19.30;53.00;;;;;;5010057;28;19957;-74
2023/03/19 11:25:19;;;;;;;;;;;19.30;53.10;;;;;;4993577;28;19913;-74
2023/03/19 11:27:48;;;;;;;;;;;19.30;53.10;;;;;;5010861;28;19909;-74
2023/03/19 11:30:17;;;;;;;;;;;19.30;52.90;;;;;;5007426;28;20256;-74
2023/03/19 11:32:52;;;;;;;;;;;19.40;53.10;;;;;;5023097;28;20285;-74
2023/03/19 11:35:21;;;;;;;;;;;19.40;52.90;;;;;;5029453;28;19920;-74
2023/03/19 11:37:56;;;;;;;;;;;19.40;52.80;;;;;;5013160;28;19921;-75
2023/03/19 11:40:26;;;;;;;;;;;19.40;53.00;;;;;;5011714;28;20394;-75
2023/03/19 11:42:54;;;;;;;;;;;19.40;52.90;;;;;;5011330;28;20402;-75
2023/03/19 11:45:30;;;;;;;;;;;19.40;52.90;;;;;;5009336;28;19935;-75
2023/03/19 11:47:56;;;;;;;;;;;19.50;52.80;;;;;;4993882;28;19921;-75
2023/03/19 11:50:40;;;;;;;;;;;19.50;52.70;;;;;;5011170;28;19913;-75
2023/03/19 11:53:09;;;;;;;;;;;19.60;52.70;;;;;;5009737;28;20394;-75
2023/03/19 11:55:42;;;;;;;;;;;19.60;52.70;;;;;;5009068;28;19921;-74
2023/03/19 11:58:23;;;;;;;;;;;19.50;52.70;;;;;;5009789;28;19916;-74
2023/03/19 12:00:59;;;;;;;;;;;19.50;52.80;;;;;;5010057;28;19914;-74
2023/03/19 12:03:37;;;;;;;;;;;19.60;52.90;;;;;;5028588;28;19917;-75
2023/03/19 12:06:08;;;;;;;;;;;19.60;52.80;;;;;;5014960;28;19914;-75
2023/03/19 12:08:44;;;;;;;;;;;19.50;52.80;;;;;;5009268;28;19910;-75
2023/03/19 12:11:19;;;;;;;;;;;19.50;53.00;;;;;;4992829;28;19960;-75
2023/03/19 12:13:51;;;;;;;;;;;19.50;53.00;;;;;;5009675;28;19918;-75
2023/03/19 12:16:26;;;;;;;;;;;19.50;52.90;;;;;;5009195;28;19914;-75
2023/03/19 12:19:11;;;;;;;;;;;19.60;53.00;;;;;;5030291;28;20397;-75
2023/03/19 12:21:40;;;;;;;;;;;19.60;52.90;;;;;;5029197;28;19951;-75
2023/03/19 12:24:17;;;;;;;;;;;19.60;52.70;;;;;;5030226;28;20047;-75
2023/03/19 12:26:53;;;;;;;;;;;19.60;52.90;;;;;;5029745;28;20362;-74
2023/03/19 12:29:19;;;;;;;;;;;19.60;52.80;;;;;;5012299;28;19909;-74
2023/03/19 12:32:08;;;;;;;;;;;19.70;52.80;;;;;;5024279;28;20003;-75
2023/03/19 12:34:38;;;;;;;;;;;19.70;52.60;;;;;;5020933;28;19956;-75
2023/03/19 12:37:12;;;;;;;;;;;19.70;52.70;;;;;;5028660;28;19995;-75
2023/03/19 12:39:39;;;;;;;;;;;19.60;52.60;;;;;;5027626;28;20003;-75
2023/03/19 12:42:05;;;;;;;;;;;19.60;52.60;;;;;;5028460;28;19914;-75
2023/03/19 12:44:38;;;;;;;;;;;19.70;52.70;;;;;;5025777;28;19909;-75
2023/03/19 12:47:12;;;;;;;;;;;19.60;52.70;;;;;;4992353;28;20336;-75
2023/03/19 12:49:45;;;;;;;;;;;19.70;52.70;;;;;;4992597;28;19916;-75
2023/03/19 12:52:20;;;;;;;;;;;19.70;52.60;;;;;;5009008;28;20313;-75
2023/03/19 12:54:47;;;;;;;;;;;19.70;52.70;;;;;;5008409;28;19918;-75
2023/03/19 12:57:18;;;;;;;;;;;19.70;52.70;;;;;;5008386;28;19913;-75
2023/03/19 12:59:54;;;;;;;;;;;19.70;52.60;;;;;;5010933;28;20382;-75
2023/03/19 13:02:21;;;;;;;;;;;19.80;52.80;;;;;;5018622;28;20375;-75
2023/03/19 13:04:49;;;;;;;;;;;19.80;52.70;;;;;;5028310;28;19917;-75
2023/03/19 13:07:17;;;;;;;;;;;19.80;52.70;;;;;;5009355;28;19913;-75
2023/03/19 13:09:43;;;;;;;;;;;19.80;52.60;;;;;;5027121;28;20298;-75
2023/03/19 13:12:10;;;;;;;;;;;19.80;52.70;;;;;;5010640;28;19910;-75
2023/03/19 13:14:51;;;;;;;;;;;19.80;52.70;;;;;;5005538;28;20371;-74
2023/03/19 13:17:35;;;;;;;;;;;19.80;52.70;;;;;;5094445;28;20322;-75
2023/03/19 13:20:06;;;;;;;;;;;19.80;52.60;;;;;;5009429;28;20006;-75
2023/03/19 13:22:33;;;;;;;;;;;19.80;52.50;;;;;;5007083;28;20336;-75
2023/03/19 13:24:59;;;;;;;;;;;19.90;52.50;;;;;;5009120;28;19915;-74
2023/03/19 13:27:34;;;;;;;;;;;19.90;52.50;;;;;;5008083;28;20310;-74
2023/03/19 13:30:06;;;;;;;;;;;19.90;52.30;;;;;;5007933;28;19914;-74
2023/03/19 13:32:37;;;;;;;;;;;20.00;52.40;;;;;;5019774;28;20004;-75
2023/03/19 13:35:21;;;;;;;;;;;19.90;52.30;;;;;;5027992;28;19918;-75
2023/03/19 13:37:47;;;;;;;;;;;20.00;52.40;;;;;;5015528;28;19956;-75
2023/03/19 13:40:31;;;;;;;;;;;20.00;52.50;;;;;;5007832;28;20413;-75
2023/03/19 13:42:57;;;;;;;;;;;19.90;52.50;;;;;;5023090;28;19947;-75
2023/03/19 13:45:36;;;;;;;;;;;20.00;52.50;;;;;;5024027;28;20298;-75
2023/03/19 13:48:20;;;;;;;;;;;20.00;52.40;;;;;;5039682;28;19920;-76
2023/03/19 13:50:59;;;;;;;;;;;20.00;52.40;;;;;;5009971;28;19921;-75
2023/03/19 13:53:27;;;;;;;;;;;20.00;52.50;;;;;;5018674;28;19930;-74
2023/03/19 13:55:53;;;;;;;;;;;20.00;52.50;;;;;;5023048;28;19921;-74
2023/03/19 14:01:26;;;;;;;;;;;20.00;52.60;;;;;;5033375;28;19924;-75
2023/03/19 14:03:53;;;;;;;;;;;20.00;52.50;;;;;;5029717;28;19917;-75
2023/03/19 14:06:29;;;;;;;;;;;20.00;52.50;;;;;;5022467;27;19913;-74
2023/03/19 14:08:54;;;;;;;;;;;19.90;52.90;;;;;;5014528;28;19921;-74
2023/03/19 14:11:23;;;;;;;;;;;19.90;52.90;;;;;;5013185;28;19921;-73
2023/03/19 14:13:48;;;;;;;;;;;20.00;53.00;;;;;;5011317;28;19971;-74
2023/03/19 14:16:18;;;;;;;;;;;20.00;52.70;;;;;;5017021;28;19925;-74
2023/03/19 14:18:44;;;;;;;;;;;20.10;52.50;;;;;;5068833;27;20380;-74
2023/03/19 14:21:13;;;;;;;;;;;20.10;52.50;;;;;;5036119;28;19917;-74